createdAt,value
2022-10-09T00:00:42.489Z,20.8
2022-10-09T00:01:44.680Z,20.7
2022-10-09T00:02:48.006Z,20.8
2022-10-09T00:03:51.973Z,20.8
2022-10-09T00:04:54.534Z,20.8
2022-10-09T00:05:56.663Z,20.8
2022-10-09T00:06:58.855Z,20.7
2022-10-09T00:08:00.775Z,20.9
2022-10-09T00:09:03.261Z,20.9
2022-10-09T00:10:05.733Z,20.9
2022-10-09T00:11:07.931Z,20.9
2022-10-09T00:12:10.403Z,20.7
2022-10-09T00:13:12.611Z,20.8
2022-10-09T00:14:15.069Z,20.7
2022-10-09T00:15:16.995Z,20.8
2022-10-09T00:16:19.667Z,20.8
2022-10-09T00:17:21.795Z,20.9
2022-10-09T00:18:24.260Z,20.7
2022-10-09T00:19:26.755Z,20.9
2022-10-09T00:20:29.222Z,20.9
2022-10-09T00:21:31.425Z,20.9
2022-10-09T00:22:33.618Z,20.9
2022-10-09T00:23:36.096Z,20.9
2022-10-09T00:24:38.561Z,20.8
2022-10-09T00:25:40.744Z,20.9
2022-10-09T00:26:43.207Z,20.9
2022-10-09T00:27:45.405Z,20.9
2022-10-09T00:28:47.808Z,21
2022-10-09T00:29:50.659Z,20.9
2022-10-09T00:30:52.992Z,20.9
2022-10-09T00:31:55.569Z,20.9
2022-10-09T00:32:57.765Z,20.8
2022-10-09T00:33:59.689Z,20.9
2022-10-09T00:35:01.887Z,20.9
2022-10-09T00:36:04.098Z,21
2022-10-09T00:37:06.323Z,20.9
2022-10-09T00:38:08.801Z,20.9
2022-10-09T00:39:10.707Z,20.9
2022-10-09T00:40:13.169Z,21
2022-10-09T00:41:15.387Z,20.9
2022-10-09T00:42:17.569Z,21
2022-10-09T00:43:20.052Z,20.9
2022-10-09T00:44:22.550Z,20.8
2022-10-09T00:45:25.022Z,20.9
2022-10-09T00:46:27.662Z,21
2022-10-09T00:47:30.533Z,20.9
2022-10-09T00:48:33.015Z,21
2022-10-09T00:49:35.487Z,20.9
2022-10-09T00:50:37.973Z,21
2022-10-09T00:51:40.447Z,21
2022-10-09T00:52:42.915Z,21
2022-10-09T00:53:45.117Z,21
2022-10-09T00:54:47.582Z,21
2022-10-09T00:55:49.779Z,20.9
2022-10-09T00:56:52.248Z,20.9
2022-10-09T00:57:54.725Z,21
2022-10-09T00:58:57.193Z,21
2022-10-09T00:59:59.706Z,21
2022-10-09T01:01:02.042Z,20.9
2022-10-09T01:02:04.769Z,21
2022-10-09T01:03:07.317Z,21
2022-10-09T01:04:09.513Z,20.9
2022-10-09T01:05:11.703Z,21
2022-10-09T01:06:14.195Z,21
2022-10-09T01:07:16.660Z,21
2022-10-09T01:08:18.855Z,21
2022-10-09T01:09:21.028Z,20.9
2022-10-09T01:10:23.230Z,21.1
2022-10-09T01:11:25.699Z,21.1
2022-10-09T01:12:28.181Z,21
2022-10-09T01:13:30.647Z,21
2022-10-09T01:14:32.839Z,21
2022-10-09T01:15:35.006Z,20.9
2022-10-09T01:16:37.371Z,21
2022-10-09T01:17:39.835Z,20.9
2022-10-09T01:18:42.369Z,21
2022-10-09T01:19:44.845Z,20.9
2022-10-09T01:20:47.104Z,21
2022-10-09T01:21:49.312Z,21
2022-10-09T01:22:52.225Z,21
2022-10-09T01:23:54.122Z,20.9
2022-10-09T01:24:56.603Z,21
2022-10-09T01:25:58.811Z,21
2022-10-09T01:27:01.004Z,20.9
2022-10-09T01:28:03.537Z,21.1
2022-10-09T01:29:06.282Z,20.9
2022-10-09T01:30:08.480Z,21
2022-10-09T01:31:10.273Z,21
2022-10-09T01:32:12.714Z,21
2022-10-09T01:33:14.899Z,21.1
2022-10-09T01:34:17.446Z,21
2022-10-09T01:35:19.068Z,21
2022-10-09T01:36:21.548Z,21.1
2022-10-09T01:37:24.037Z,21
2022-10-09T01:38:26.532Z,21
2022-10-09T01:39:28.698Z,21
2022-10-09T01:40:30.884Z,20.9
2022-10-09T01:41:33.076Z,21.1
2022-10-09T01:42:35.563Z,21.1
2022-10-09T01:43:37.500Z,21
2022-10-09T01:44:39.696Z,21.1
2022-10-09T01:45:42.354Z,20.9
2022-10-09T01:46:44.043Z,21
2022-10-09T01:47:46.244Z,21.1
2022-10-09T01:48:48.439Z,21.1
2022-10-09T01:49:51.663Z,21.1
2022-10-09T01:50:53.578Z,21.1
2022-10-09T01:51:55.766Z,21.1
2022-10-09T01:52:58.246Z,21
2022-10-09T01:54:00.449Z,21.1
2022-10-09T01:55:02.377Z,21
2022-10-09T01:56:04.565Z,21
2022-10-09T01:57:07.054Z,21.1
2022-10-09T01:58:09.242Z,21.2
2022-10-09T02:00:16.433Z,21.1
2022-10-09T02:01:18.794Z,21
2022-10-09T02:02:21.878Z,21.1
2022-10-09T02:03:24.783Z,21.1
2022-10-09T02:04:26.996Z,21.1
2022-10-09T02:05:29.246Z,21
2022-10-09T02:06:31.433Z,21.1
2022-10-09T02:07:33.634Z,21
2022-10-09T02:08:36.580Z,21
2022-10-09T02:09:38.799Z,20.9
2022-10-09T02:10:41.265Z,21.2
2022-10-09T02:11:43.753Z,21.2
2022-10-09T02:12:46.144Z,21.1
2022-10-09T02:13:49.993Z,21
2022-10-09T02:14:52.460Z,21.1
2022-10-09T02:15:55.110Z,21
2022-10-09T02:16:57.565Z,21.2
2022-10-09T02:17:59.791Z,21.1
2022-10-09T02:19:01.989Z,21
2022-10-09T02:20:03.925Z,21.1
2022-10-09T02:21:06.459Z,21.1
2022-10-09T02:22:08.368Z,21
2022-10-09T02:23:10.260Z,21
2022-10-09T02:24:12.215Z,21.1
2022-10-09T02:25:14.406Z,21.1
2022-10-09T02:26:16.891Z,21.1
2022-10-09T02:27:19.079Z,21.1
2022-10-09T02:28:21.090Z,21.2
2022-10-09T02:29:23.339Z,21.1
2022-10-09T02:30:25.813Z,21.1
2022-10-09T02:31:28.516Z,21
2022-10-09T02:32:30.796Z,21.1
2022-10-09T02:33:33.009Z,21.1
2022-10-09T02:34:35.486Z,21.1
2022-10-09T02:35:37.962Z,21
2022-10-09T02:36:40.425Z,21.1
2022-10-09T02:37:42.893Z,21
2022-10-09T02:38:45.093Z,21.1
2022-10-09T02:39:47.590Z,21.1
2022-10-09T02:40:50.073Z,21
2022-10-09T02:41:52.275Z,21.2
2022-10-09T02:42:54.752Z,21.2
2022-10-09T02:43:56.945Z,21.1
2022-10-09T02:44:59.454Z,21.1
2022-10-09T02:46:01.464Z,21.1
2022-10-09T02:47:03.885Z,21
2022-10-09T02:48:05.777Z,21.1
2022-10-09T02:49:08.270Z,21.2
2022-10-09T02:50:10.746Z,21.1
2022-10-09T02:51:13.220Z,21.2
2022-10-09T02:52:15.460Z,21.1
2022-10-09T02:53:17.936Z,21.2
2022-10-09T02:54:20.118Z,21.2
2022-10-09T02:55:22.058Z,21.2
2022-10-09T02:56:24.534Z,21.1
2022-10-09T02:57:27.003Z,21.1
2022-10-09T02:58:28.929Z,21.1
2022-10-09T02:59:30.853Z,21.1
2022-10-09T03:00:33.131Z,21.1
2022-10-09T03:01:35.430Z,21.2
2022-10-09T03:02:38.108Z,21.1
2022-10-09T03:03:41.229Z,21
2022-10-09T03:04:43.233Z,21
2022-10-09T03:05:45.436Z,21.1
2022-10-09T03:06:47.903Z,21.1
2022-10-09T03:07:50.448Z,21
2022-10-09T03:08:52.388Z,21
2022-10-09T03:09:54.581Z,21
2022-10-09T03:10:57.065Z,21
2022-10-09T03:11:59.527Z,20.9
2022-10-09T03:13:01.999Z,21
2022-10-09T03:14:04.185Z,21
2022-10-09T03:15:06.153Z,21
2022-10-09T03:16:08.157Z,20.9
2022-10-09T03:17:10.359Z,20.9
2022-10-09T03:18:12.836Z,20.9
2022-10-09T03:19:14.482Z,21
2022-10-09T03:20:16.974Z,20.9
2022-10-09T03:21:19.165Z,20.9
2022-10-09T03:22:21.352Z,21
2022-10-09T03:23:23.882Z,20.9
2022-10-09T03:24:26.350Z,21
2022-10-09T03:25:28.556Z,20.9
2022-10-09T03:26:31.037Z,20.9
2022-10-09T03:27:33.505Z,20.8
2022-10-09T03:28:36.121Z,20.9
2022-10-09T03:29:38.907Z,20.8
2022-10-09T03:30:41.107Z,20.8
2022-10-09T03:32:49.144Z,20.8
2022-10-09T03:33:52.692Z,20.9
2022-10-09T03:34:55.189Z,20.8
2022-10-09T03:35:57.680Z,20.8
2022-10-09T03:37:00.140Z,20.8
2022-10-09T03:38:02.345Z,20.9
2022-10-09T03:39:04.870Z,20.8
2022-10-09T03:40:07.078Z,20.7
2022-10-09T03:41:09.542Z,20.8
2022-10-09T03:42:12.054Z,20.6
2022-10-09T03:43:14.232Z,20.7
2022-10-09T03:44:16.434Z,20.7
2022-10-09T03:45:18.902Z,20.8
2022-10-09T03:46:21.576Z,20.9
2022-10-09T03:47:23.994Z,20.7
2022-10-09T03:48:26.471Z,20.6
2022-10-09T03:49:28.665Z,20.7
2022-10-09T03:50:30.863Z,20.8
2022-10-09T03:51:33.098Z,20.7
2022-10-09T03:52:34.994Z,20.8
2022-10-09T03:53:37.468Z,20.7
2022-10-09T03:54:40.012Z,20.7
2022-10-09T03:55:42.478Z,20.7
2022-10-09T03:56:44.951Z,20.7
2022-10-09T03:57:47.446Z,20.6
2022-10-09T03:58:49.915Z,20.6
2022-10-09T03:59:52.087Z,20.6
2022-10-09T04:00:54.241Z,20.7
2022-10-09T04:01:56.746Z,20.6
2022-10-09T04:02:59.085Z,20.8
2022-10-09T04:04:01.969Z,20.6
2022-10-09T04:05:04.166Z,20.6
2022-10-09T04:06:06.360Z,20.7
2022-10-09T04:07:08.568Z,20.7
2022-10-09T04:08:11.030Z,20.7
2022-10-09T04:09:13.207Z,20.7
2022-10-09T04:10:15.746Z,20.6
2022-10-09T04:11:17.672Z,20.6
2022-10-09T04:12:19.586Z,20.7
2022-10-09T04:13:22.098Z,20.6
2022-10-09T04:14:24.268Z,20.7
2022-10-09T04:15:26.973Z,20.7
2022-10-09T04:16:29.373Z,20.8
2022-10-09T04:17:31.984Z,20.7
2022-10-09T04:18:34.447Z,20.6
2022-10-09T04:19:36.350Z,20.8
2022-10-09T04:20:38.552Z,20.6
2022-10-09T04:21:41.024Z,20.8
2022-10-09T04:22:43.252Z,20.7
2022-10-09T04:23:45.441Z,20.6
2022-10-09T04:24:47.932Z,20.7
2022-10-09T04:25:50.464Z,20.7
2022-10-09T04:26:52.370Z,20.5
2022-10-09T04:27:54.843Z,20.5
2022-10-09T04:28:57.364Z,20.7
2022-10-09T04:29:59.534Z,20.6
2022-10-09T04:31:02.047Z,20.8
2022-10-09T04:32:04.515Z,20.6
2022-10-09T04:34:11.973Z,20.7
2022-10-09T04:35:13.890Z,20.6
2022-10-09T04:36:16.352Z,20.6
2022-10-09T04:37:18.823Z,20.7
2022-10-09T04:38:21.037Z,20.6
2022-10-09T04:39:23.502Z,20.6
2022-10-09T04:40:25.969Z,20.7
2022-10-09T04:41:28.282Z,20.6
2022-10-09T04:42:30.472Z,20.7
2022-10-09T04:43:32.949Z,20.5
2022-10-09T04:44:35.429Z,20.6
2022-10-09T04:45:37.895Z,20.6
2022-10-09T04:46:40.378Z,20.6
2022-10-09T04:47:42.848Z,20.6
2022-10-09T04:48:45.046Z,20.7
2022-10-09T04:49:47.522Z,20.6
2022-10-09T04:50:49.712Z,20.5
2022-10-09T04:51:52.187Z,20.7
2022-10-09T04:52:54.382Z,20.6
2022-10-09T04:55:01.592Z,20.6
2022-10-09T04:56:03.794Z,20.7
2022-10-09T04:57:06.323Z,20.6
2022-10-09T04:58:08.524Z,20.5
2022-10-09T04:59:11.005Z,20.6
2022-10-09T05:00:13.239Z,20.6
2022-10-09T05:01:15.576Z,20.5
2022-10-09T05:02:18.423Z,20.4
2022-10-09T05:03:21.262Z,20.6
2022-10-09T05:04:23.461Z,20.4
2022-10-09T05:05:25.929Z,20.7
2022-10-09T05:06:28.138Z,20.5
2022-10-09T05:07:30.617Z,20.5
2022-10-09T05:08:33.093Z,20.6
2022-10-09T05:09:35.301Z,20.4
2022-10-09T05:10:37.791Z,20.6
2022-10-09T05:12:44.968Z,20.5
2022-10-09T05:13:48.567Z,20.5
2022-10-09T05:14:50.828Z,20.5
2022-10-09T05:15:53.320Z,20.6
2022-10-09T05:18:00.780Z,20.6
2022-10-09T05:19:03.290Z,20.6
2022-10-09T05:20:05.488Z,20.7
2022-10-09T05:21:07.696Z,20.5
2022-10-09T05:22:09.615Z,20.5
2022-10-09T05:23:12.085Z,20.5
2022-10-09T05:24:14.005Z,20.5
2022-10-09T05:25:16.203Z,20.5
2022-10-09T05:26:18.693Z,20.6
2022-10-09T05:27:21.174Z,20.5
2022-10-09T05:28:23.708Z,20.6
2022-10-09T05:29:26.703Z,20.5
2022-10-09T05:30:28.890Z,20.7
2022-10-09T05:31:30.951Z,20.7
2022-10-09T05:32:33.345Z,20.7
2022-10-09T05:33:35.841Z,20.5
2022-10-09T05:34:38.313Z,20.6
2022-10-09T05:35:40.505Z,20.5
2022-10-09T05:36:42.681Z,20.6
2022-10-09T05:37:44.889Z,20.5
2022-10-09T05:38:47.376Z,20.6
2022-10-09T05:39:49.596Z,20.5
2022-10-09T05:40:52.066Z,20.6
2022-10-09T05:41:54.277Z,20.6
2022-10-09T05:42:56.754Z,20.6
2022-10-09T05:43:59.002Z,20.5
2022-10-09T05:45:01.535Z,20.5
2022-10-09T05:46:03.960Z,20.5
2022-10-09T05:47:06.117Z,20.5
2022-10-09T05:48:08.315Z,20.6
2022-10-09T05:49:10.786Z,20.6
2022-10-09T05:50:13.328Z,20.4
2022-10-09T05:51:15.223Z,20.5
2022-10-09T05:52:16.854Z,20.5
2022-10-09T05:53:19.338Z,20.4
2022-10-09T05:54:21.545Z,20.5
2022-10-09T05:55:24.022Z,20.5
2022-10-09T05:56:26.207Z,20.4
2022-10-09T05:57:27.884Z,20.4
2022-10-09T05:58:30.084Z,20.5
2022-10-09T05:59:31.432Z,20.5
2022-10-09T06:00:33.960Z,20.4
2022-10-09T06:01:36.416Z,20.5
2022-10-09T06:02:39.300Z,20.5
2022-10-09T06:03:42.006Z,20.4
2022-10-09T06:04:44.206Z,20.4
2022-10-09T06:05:46.665Z,20.6
2022-10-09T06:06:48.616Z,20.5
2022-10-09T06:07:51.113Z,20.4
2022-10-09T06:08:53.037Z,20.6
2022-10-09T06:09:55.520Z,20.4
2022-10-09T06:10:57.719Z,20.5
2022-10-09T06:11:59.929Z,20.5
2022-10-09T06:13:02.424Z,20.4
2022-10-09T06:14:04.600Z,20.5
2022-10-09T06:15:06.789Z,20.4
2022-10-09T06:16:09.100Z,20.6
2022-10-09T06:17:11.799Z,20.6
2022-10-09T06:18:14.021Z,20.5
2022-10-09T06:19:16.487Z,20.4
2022-10-09T06:20:19.207Z,20.6
2022-10-09T06:21:21.674Z,20.6
2022-10-09T06:22:23.870Z,20.5
2022-10-09T06:23:26.337Z,20.4
2022-10-09T06:24:30.004Z,20.6
2022-10-09T06:25:32.494Z,20.5
2022-10-09T06:26:34.974Z,20.5
2022-10-09T06:27:37.170Z,20.5
2022-10-09T06:28:38.926Z,20.5
2022-10-09T06:29:41.868Z,20.6
2022-10-09T06:30:44.428Z,20.5
2022-10-09T06:31:47.047Z,20.5
2022-10-09T06:32:49.971Z,20.6
2022-10-09T06:33:53.981Z,20.4
2022-10-09T06:34:55.909Z,20.5
2022-10-09T06:37:02.834Z,20.5
2022-10-09T06:38:05.363Z,20.4
2022-10-09T06:39:07.852Z,20.4
2022-10-09T06:40:10.041Z,20.5
2022-10-09T06:41:11.401Z,20.5
2022-10-09T06:42:13.885Z,20.6
2022-10-09T06:43:16.351Z,20.4
2022-10-09T06:44:18.323Z,20.5
2022-10-09T06:45:20.505Z,20.5
2022-10-09T06:46:22.903Z,20.5
2022-10-09T06:47:25.333Z,20.4
2022-10-09T06:48:27.817Z,20.5
2022-10-09T06:49:30.038Z,20.4
2022-10-09T06:50:32.238Z,20.5
2022-10-09T06:51:34.716Z,20.5
2022-10-09T06:52:36.767Z,20.5
2022-10-09T06:53:38.958Z,20.6
2022-10-09T06:54:40.854Z,20.5
2022-10-09T06:55:43.338Z,20.4
2022-10-09T06:56:45.249Z,20.6
2022-10-09T06:57:47.732Z,20.6
2022-10-09T06:58:50.212Z,20.5
2022-10-09T06:59:52.448Z,20.5
2022-10-09T07:00:54.922Z,20.6
2022-10-09T07:01:57.154Z,20.5
2022-10-09T07:03:00.514Z,20.5
2022-10-09T07:04:03.133Z,20.6
2022-10-09T07:05:05.367Z,20.4
2022-10-09T07:06:07.320Z,20.5
2022-10-09T07:07:09.836Z,20.5
2022-10-09T07:08:12.314Z,20.3
2022-10-09T07:09:14.239Z,20.5
2022-10-09T07:10:17.565Z,20.5
2022-10-09T07:11:24.720Z,20.4
2022-10-09T07:12:27.220Z,20.5
2022-10-09T07:13:29.142Z,20.4
2022-10-09T07:14:31.350Z,20.5
2022-10-09T07:15:33.713Z,20.5
2022-10-09T07:16:36.267Z,20.4
2022-10-09T07:17:38.741Z,20.5
2022-10-09T07:18:41.019Z,20.6
2022-10-09T07:19:43.211Z,20.5
2022-10-09T07:20:45.405Z,20.4
2022-10-09T07:21:47.952Z,20.5
2022-10-09T07:22:51.074Z,20.5
2022-10-09T07:23:53.421Z,20.3
2022-10-09T07:24:55.615Z,20.5
2022-10-09T07:25:57.259Z,20.4
2022-10-09T07:26:59.734Z,20.6
2022-10-09T07:28:02.106Z,20.5
2022-10-09T07:29:04.850Z,20.4
2022-10-09T07:30:07.332Z,20.6
2022-10-09T07:31:09.731Z,20.5
2022-10-09T07:32:12.566Z,20.4
2022-10-09T07:33:14.495Z,20.5
2022-10-09T07:34:17.028Z,20.5
2022-10-09T07:35:19.220Z,20.5
2022-10-09T07:36:21.724Z,20.3
2022-10-09T07:37:23.931Z,20.4
2022-10-09T07:38:26.181Z,20.6
2022-10-09T07:39:28.374Z,20.5
2022-10-09T07:40:30.587Z,20.6
2022-10-09T07:41:33.064Z,20.4
2022-10-09T07:42:34.693Z,20.4
2022-10-09T07:43:36.365Z,20.5
2022-10-09T07:44:37.996Z,20.4
2022-10-09T07:45:40.489Z,20.5
2022-10-09T07:46:42.759Z,20.4
2022-10-09T07:47:45.314Z,20.4
2022-10-09T07:48:47.798Z,20.5
2022-10-09T07:49:50.352Z,20.3
2022-10-09T07:50:52.562Z,20.4
2022-10-09T07:51:55.054Z,20.5
2022-10-09T07:52:57.534Z,20.4
2022-10-09T07:53:59.743Z,20.5
2022-10-09T07:55:02.349Z,20.5
2022-10-09T07:56:04.833Z,20.4
2022-10-09T07:57:07.320Z,20.5
2022-10-09T07:58:09.796Z,20.4
2022-10-09T07:59:11.992Z,20.4
2022-10-09T08:00:14.219Z,20.3
2022-10-09T08:02:21.565Z,20.4
2022-10-09T08:03:23.616Z,20.4
2022-10-09T08:04:25.809Z,20.4
2022-10-09T08:05:28.382Z,20.4
2022-10-09T08:06:30.985Z,20.4
2022-10-09T08:08:38.205Z,20.4
2022-10-09T08:09:40.686Z,20.4
2022-10-09T08:10:43.156Z,20.4
2022-10-09T08:11:45.080Z,20.4
2022-10-09T08:12:48.415Z,20.4
2022-10-09T08:13:52.535Z,20.4
2022-10-09T08:14:54.996Z,20.3
2022-10-09T08:15:57.687Z,20.4
2022-10-09T08:17:00.398Z,20.5
2022-10-09T08:18:02.620Z,20.5
2022-10-09T08:19:04.789Z,20.3
2022-10-09T08:20:07.269Z,20.3
2022-10-09T08:21:09.516Z,20.4
2022-10-09T08:22:11.440Z,20.3
2022-10-09T08:23:13.928Z,20.4
2022-10-09T08:24:16.133Z,20.4
2022-10-09T08:25:18.035Z,20.4
2022-10-09T08:26:20.254Z,20.5
2022-10-09T08:27:22.731Z,20.3
2022-10-09T08:28:25.378Z,20.3
2022-10-09T08:29:27.908Z,20.3
2022-10-09T08:30:30.106Z,20.4
2022-10-09T08:31:32.181Z,20.7
2022-10-09T08:32:35.033Z,20.5
2022-10-09T08:33:37.539Z,20.4
2022-10-09T08:34:39.739Z,20.2
2022-10-09T08:35:41.661Z,20.4
2022-10-09T08:36:44.222Z,20.4
2022-10-09T08:37:46.406Z,20.3
2022-10-09T08:38:49.164Z,20.4
2022-10-09T08:39:50.865Z,20.4
2022-10-09T08:41:58.329Z,20.4
2022-10-09T08:43:00.821Z,20.4
2022-10-09T08:44:03.014Z,20.4
2022-10-09T08:45:04.935Z,20.4
2022-10-09T08:46:07.237Z,20.4
2022-10-09T08:47:09.646Z,20.3
2022-10-09T08:48:12.116Z,20.3
2022-10-09T08:49:14.065Z,20.4
2022-10-09T08:50:16.531Z,20.4
2022-10-09T08:51:18.739Z,20.4
2022-10-09T08:52:20.987Z,20.3
2022-10-09T08:53:23.486Z,20.4
2022-10-09T08:54:25.974Z,20.5
2022-10-09T08:55:28.181Z,20.3
2022-10-09T08:56:30.384Z,20.4
2022-10-09T08:57:32.633Z,20.5
2022-10-09T08:58:35.127Z,20.4
2022-10-09T08:59:37.344Z,20.3
2022-10-09T09:00:39.548Z,20.5
2022-10-09T09:01:41.629Z,20.4
2022-10-09T09:02:43.859Z,20.4
2022-10-09T09:03:45.809Z,20.4
2022-10-09T09:05:53.023Z,20.5
2022-10-09T09:06:55.237Z,20.4
2022-10-09T09:07:57.750Z,20.3
2022-10-09T09:08:59.947Z,20.4
2022-10-09T09:10:02.442Z,20.4
2022-10-09T09:11:04.931Z,20.4
2022-10-09T09:12:07.134Z,20.5
2022-10-09T09:13:09.139Z,20.3
2022-10-09T09:14:11.089Z,20.4
2022-10-09T09:15:13.039Z,20.4
2022-10-09T09:16:15.728Z,20.4
2022-10-09T09:17:18.130Z,20.4
2022-10-09T09:18:20.607Z,20.4
2022-10-09T09:19:23.091Z,20.4
2022-10-09T09:20:25.323Z,20.4
2022-10-09T09:21:27.844Z,20.4
2022-10-09T09:22:30.362Z,20.4
2022-10-09T09:23:32.618Z,20.3
2022-10-09T09:24:34.266Z,20.4
2022-10-09T09:25:36.775Z,20.3
2022-10-09T09:26:39.248Z,20.5
2022-10-09T09:27:41.186Z,20.4
2022-10-09T09:28:43.886Z,20.3
2022-10-09T09:29:46.532Z,20.1
2022-10-09T09:30:48.499Z,20.2
2022-10-09T09:31:50.585Z,20.3
2022-10-09T09:32:53.092Z,20.4
2022-10-09T09:33:55.302Z,20.5
2022-10-09T09:34:57.512Z,20.4
2022-10-09T09:35:59.717Z,20.3
2022-10-09T09:37:02.220Z,20.3
2022-10-09T09:38:04.397Z,20.4
2022-10-09T09:41:16.961Z,20.5
2022-10-09T09:42:19.446Z,20.4
2022-10-09T09:43:21.654Z,20.3
2022-10-09T09:44:24.142Z,20.5
2022-10-09T09:45:26.610Z,20.3
2022-10-09T09:46:28.785Z,20.2
2022-10-09T09:47:31.486Z,20.4
2022-10-09T09:48:33.974Z,20.2
2022-10-09T09:49:36.481Z,20.5
2022-10-09T09:51:43.988Z,20.4
2022-10-09T09:52:45.955Z,20.3
2022-10-09T09:53:47.872Z,20.4
2022-10-09T09:54:50.138Z,20.3
2022-10-09T09:55:52.068Z,20.3
2022-10-09T09:57:59.559Z,20.4
2022-10-09T09:59:01.526Z,20.3
2022-10-09T10:00:03.733Z,20.4
2022-10-09T10:01:06.076Z,20.4
2022-10-09T10:02:08.925Z,20.3
2022-10-09T10:03:11.580Z,20.4
2022-10-09T10:04:13.777Z,20.5
2022-10-09T10:05:16.306Z,20.4
2022-10-09T10:06:18.547Z,20.3
2022-10-09T10:07:20.766Z,20.3
2022-10-09T10:08:22.994Z,20.4
2022-10-09T10:09:25.206Z,20.4
2022-10-09T10:10:27.816Z,20.3
2022-10-09T10:11:29.463Z,20.4
2022-10-09T10:12:31.685Z,20.3
2022-10-09T10:13:33.888Z,20.3
2022-10-09T10:14:36.371Z,20.4
2022-10-09T10:15:38.859Z,20.4
2022-10-09T10:16:41.177Z,20.5
2022-10-09T10:17:43.101Z,20.5
2022-10-09T10:18:45.273Z,20.2
2022-10-09T10:19:47.760Z,20.4
2022-10-09T10:20:50.230Z,20.4
2022-10-09T10:21:52.704Z,20.3
2022-10-09T10:22:54.897Z,20.3
2022-10-09T10:23:56.987Z,20.2
2022-10-09T10:24:59.843Z,20.3
2022-10-09T10:26:02.106Z,20.4
2022-10-09T10:27:04.582Z,20.2
2022-10-09T10:28:06.992Z,20.3
2022-10-09T10:29:09.710Z,20.3
2022-10-09T10:30:11.920Z,20.3
2022-10-09T10:31:14.219Z,20.3
2022-10-09T10:32:16.811Z,20.4
2022-10-09T10:33:18.781Z,20.3
2022-10-09T10:34:20.973Z,20.3
2022-10-09T10:35:22.881Z,20.4
2022-10-09T10:36:25.354Z,20.3
2022-10-09T10:37:27.842Z,20.1
2022-10-09T10:38:30.319Z,20.4
2022-10-09T10:39:32.821Z,20.4
2022-10-09T10:40:34.723Z,20.4
2022-10-09T10:41:36.962Z,20
2022-10-09T10:42:39.168Z,20.5
2022-10-09T10:43:41.383Z,20.4
2022-10-09T10:44:43.859Z,20.3
2022-10-09T10:45:46.336Z,20.3
2022-10-09T10:46:49.002Z,20.3
2022-10-09T10:47:52.950Z,20.3
2022-10-09T10:48:55.309Z,20.5
2022-10-09T10:49:57.223Z,20.4
2022-10-09T10:50:59.425Z,20.3
2022-10-09T10:52:01.354Z,20.3
2022-10-09T10:53:03.258Z,20.3
2022-10-09T10:54:04.912Z,20.3
2022-10-09T10:55:07.400Z,20.3
2022-10-09T10:56:09.895Z,20.3
2022-10-09T10:57:12.564Z,20.4
2022-10-09T10:58:15.159Z,20.4
2022-10-09T10:59:17.605Z,20.3
2022-10-09T11:00:19.539Z,20.4
2022-10-09T11:01:21.912Z,20.3
2022-10-09T11:02:24.859Z,20.4
2022-10-09T11:03:27.563Z,20.4
2022-10-09T11:04:30.181Z,20.6
2022-10-09T11:05:32.390Z,20.3
2022-10-09T11:06:34.861Z,20.4
2022-10-09T11:07:37.326Z,20.2
2022-10-09T11:08:39.537Z,20.4
2022-10-09T11:09:42.015Z,20.2
2022-10-09T11:10:43.945Z,20.4
2022-10-09T11:11:46.118Z,20.3
2022-10-09T11:12:49.202Z,20.3
2022-10-09T11:13:51.392Z,20.4
2022-10-09T11:14:53.884Z,20.1
2022-10-09T11:15:56.207Z,20.4
2022-10-09T11:16:58.347Z,20.4
2022-10-09T11:18:00.538Z,20.2
2022-10-09T11:19:02.476Z,20.4
2022-10-09T11:20:04.957Z,20.4
2022-10-09T11:21:06.889Z,20.3
2022-10-09T11:22:09.089Z,20.5
2022-10-09T11:23:11.566Z,20.3
2022-10-09T11:24:14.037Z,20.3
2022-10-09T11:25:16.518Z,20.3
2022-10-09T11:26:19.039Z,20.3
2022-10-09T11:27:21.506Z,20.4
2022-10-09T11:28:23.900Z,20.4
2022-10-09T11:29:26.313Z,20.4
2022-10-09T11:30:28.844Z,20.4
2022-10-09T11:31:31.554Z,20.3
2022-10-09T11:32:34.140Z,20.2
2022-10-09T11:33:37.034Z,20.2
2022-10-09T11:34:39.537Z,20.2
2022-10-09T11:35:42.015Z,20.4
2022-10-09T11:36:44.522Z,20.3
2022-10-09T11:37:47.195Z,20.3
2022-10-09T11:38:51.286Z,20.4
2022-10-09T11:39:53.756Z,20.3
2022-10-09T11:40:56.230Z,20.3
2022-10-09T11:41:58.730Z,20.3
2022-10-09T11:43:01.201Z,20.4
2022-10-09T11:44:03.448Z,20.4
2022-10-09T11:45:05.378Z,20.3
2022-10-09T11:46:07.849Z,20.3
2022-10-09T11:47:10.581Z,20.3
2022-10-09T11:48:13.052Z,20.3
2022-10-09T11:49:15.545Z,20.3
2022-10-09T11:50:18.014Z,20.4
2022-10-09T11:51:20.243Z,20.3
2022-10-09T11:52:22.711Z,20.1
2022-10-09T11:53:24.620Z,20.4
2022-10-09T11:54:27.101Z,20.3
2022-10-09T11:55:29.306Z,20.4
2022-10-09T11:56:31.783Z,20.4
2022-10-09T11:57:34.289Z,20.3
2022-10-09T11:58:36.539Z,20.3
2022-10-09T11:59:39.067Z,20.3
2022-10-09T12:00:41.536Z,20.3
2022-10-09T12:01:43.907Z,20.2
2022-10-09T12:02:46.548Z,20.4
2022-10-09T12:03:49.061Z,20.1
2022-10-09T12:05:56.517Z,20.4
2022-10-09T12:06:59.007Z,20.4
2022-10-09T12:08:01.476Z,20.3
2022-10-09T12:09:03.668Z,20.3
2022-10-09T12:10:06.163Z,20.4
2022-10-09T12:11:08.097Z,20.4
2022-10-09T12:12:10.557Z,20.3
2022-10-09T12:13:12.782Z,20.2
2022-10-09T12:15:20.034Z,20.4
2022-10-09T12:16:22.521Z,20.2
2022-10-09T12:17:25.378Z,20.3
2022-10-09T12:18:27.633Z,20.3
2022-10-09T12:19:29.862Z,20.5
2022-10-09T12:20:32.384Z,20.2
2022-10-09T12:21:34.858Z,20.4
2022-10-09T12:22:37.066Z,20.4
2022-10-09T12:23:38.995Z,20.4
2022-10-09T12:24:41.482Z,20.3
2022-10-09T12:25:43.674Z,20.3
2022-10-09T12:26:45.889Z,20.3
2022-10-09T12:27:48.370Z,20.3
2022-10-09T12:28:50.881Z,20.5
2022-10-09T12:29:53.200Z,20.4
2022-10-09T12:30:55.780Z,20.4
2022-10-09T12:31:58.632Z,20.3
2022-10-09T12:33:01.158Z,20.3
2022-10-09T12:34:03.628Z,20.3
2022-10-09T12:35:05.551Z,20.4
2022-10-09T12:36:07.749Z,20.3
2022-10-09T12:37:10.018Z,20.4
2022-10-09T12:38:12.491Z,20.4
2022-10-09T12:39:14.691Z,20.2
2022-10-09T12:40:17.178Z,20.4
2022-10-09T12:41:20.976Z,20.3
2022-10-09T12:42:23.094Z,20.5
2022-10-09T12:43:25.616Z,20.3
2022-10-09T12:44:27.251Z,20.2
2022-10-09T12:45:29.459Z,20.3
2022-10-09T12:46:31.482Z,20.3
2022-10-09T12:47:34.026Z,20.2
2022-10-09T12:48:36.240Z,20.5
2022-10-09T12:49:38.745Z,20.2
2022-10-09T12:50:40.958Z,20.3
2022-10-09T12:51:42.877Z,20.3
2022-10-09T12:52:44.779Z,20.3
2022-10-09T12:53:47.839Z,20.6
2022-10-09T12:54:50.035Z,20.3
2022-10-09T12:55:52.248Z,20.3
2022-10-09T12:56:54.728Z,20.3
2022-10-09T12:57:56.917Z,20.4
2022-10-09T12:58:59.142Z,20.4
2022-10-09T13:00:01.383Z,20.5
2022-10-09T13:01:03.940Z,20.3
2022-10-09T13:02:07.071Z,20.4
2022-10-09T13:03:10.400Z,20.2
2022-10-09T13:04:12.627Z,20.2
2022-10-09T13:05:14.811Z,20.2
2022-10-09T13:06:17.288Z,20.4
2022-10-09T13:07:19.763Z,20.3
2022-10-09T13:08:21.961Z,20.4
2022-10-09T13:09:24.149Z,20.4
2022-10-09T13:10:26.344Z,20.3
2022-10-09T13:11:28.830Z,20.4
2022-10-09T13:12:31.054Z,20.4
2022-10-09T13:13:32.983Z,20.3
2022-10-09T13:14:34.879Z,20.2
2022-10-09T13:15:37.119Z,20.3
2022-10-09T13:16:39.451Z,20.2
2022-10-09T13:17:42.217Z,20.3
2022-10-09T13:18:44.481Z,20.4
2022-10-09T13:19:46.409Z,20.3
2022-10-09T13:20:48.890Z,20.4
2022-10-09T13:21:51.384Z,20.3
2022-10-09T13:22:53.585Z,20.3
2022-10-09T13:23:55.782Z,20.3
2022-10-09T13:24:58.265Z,20.2
2022-10-09T13:27:05.492Z,20.4
2022-10-09T13:28:07.542Z,20.1
2022-10-09T13:29:10.251Z,20.4
2022-10-09T13:30:12.743Z,20.1
2022-10-09T13:31:14.828Z,20.5
2022-10-09T13:32:17.611Z,20.3
2022-10-09T13:33:20.084Z,20.2
2022-10-09T13:34:22.380Z,20.3
2022-10-09T13:35:24.880Z,20.4
2022-10-09T13:36:27.089Z,20.3
2022-10-09T13:37:28.997Z,20.3
2022-10-09T13:39:36.196Z,20.3
2022-10-09T13:40:38.684Z,20.3
2022-10-09T13:41:40.625Z,20.2
2022-10-09T13:42:42.550Z,20.3
2022-10-09T13:43:44.753Z,20.2
2022-10-09T13:44:47.239Z,20.3
2022-10-09T13:45:49.309Z,20.4
2022-10-09T13:46:52.099Z,20.3
2022-10-09T13:47:54.563Z,20.3
2022-10-09T13:48:56.778Z,20.3
2022-10-09T13:49:59.331Z,20.3
2022-10-09T13:51:01.834Z,20.3
2022-10-09T13:52:04.305Z,20.2
2022-10-09T13:53:06.787Z,20.4
2022-10-09T13:54:09.286Z,20.4
2022-10-09T13:55:11.498Z,20.2
2022-10-09T13:56:13.969Z,20.3
2022-10-09T13:57:16.541Z,20.2
2022-10-09T13:58:19.180Z,20.3
2022-10-09T13:59:21.669Z,20.4
2022-10-09T14:00:23.859Z,20.3
2022-10-09T14:01:26.207Z,20.3
2022-10-09T14:02:29.436Z,20.3
2022-10-09T14:03:31.686Z,20.3
2022-10-09T14:04:33.907Z,20.2
2022-10-09T14:05:35.927Z,20.3
2022-10-09T14:06:38.171Z,20.3
2022-10-09T14:07:40.383Z,20.2
2022-10-09T14:08:42.721Z,20.2
2022-10-09T14:09:44.940Z,20.2
2022-10-09T14:10:47.145Z,20.3
2022-10-09T14:11:49.373Z,20.3
2022-10-09T14:12:52.640Z,20.3
2022-10-09T14:13:55.165Z,20.3
2022-10-09T14:14:57.642Z,20.4
2022-10-09T14:15:59.827Z,20.2